Terminal Aerodrome Forecast
Issued by NWS

Home | Current Version | Previous Version | Text Only | Print | Product List | Glossary On
Versions: 1 2 3 4 5 6 7 8 9 10 11 12 13 14 15 16 17 18 19 20
136
FTUS42 KTBW 080522
TAFRSW
TAF
KRSW 080522Z 0806/0906 01004KT P6SM BKN080
     FM081400 02006KT P6SM SCT025 BKN050 BKN100
     FM081800 01009KT P6SM BKN045 OVC080=

USA.gov is the U.S. government's official web portal to all federal, state and local government web resources and services.